createdAt,value
2018-09-01T00:01:46.459Z,99646.84
2018-09-01T00:04:15.347Z,99644.30
2018-09-01T00:06:44.232Z,99648.98
2018-09-01T00:09:13.167Z,99643.91
2018-09-01T00:11:43.049Z,99647.22
2018-09-01T00:14:12.384Z,99648.34
2018-09-01T00:16:41.359Z,99648.25
2018-09-01T00:19:10.341Z,99646.44
2018-09-01T00:21:39.461Z,99653.88
2018-09-01T00:24:10.506Z,99654.09
2018-09-01T00:26:41.669Z,99650.91
2018-09-01T00:29:10.593Z,99647.03
2018-09-01T00:31:39.527Z,99646.36
2018-09-01T00:34:09.139Z,99646.21
2018-09-01T00:36:37.961Z,99655.88
2018-09-01T00:39:09.381Z,99654.75
2018-09-01T00:41:38.356Z,99650.32
2018-09-01T00:44:07.471Z,99655.69
2018-09-01T00:46:36.841Z,99654.75
2018-09-01T00:49:05.696Z,99653.55
2018-09-01T00:51:34.708Z,99658.86
2018-09-01T00:54:03.900Z,99660.70
2018-09-01T00:56:32.993Z,99659.72
2018-09-01T00:59:01.936Z,99662.81
2018-09-01T01:01:30.849Z,99663.05
2018-09-01T01:03:59.851Z,99658.17
2018-09-01T01:06:28.743Z,99655.61
2018-09-01T01:08:57.687Z,99660.12
2018-09-01T01:11:26.717Z,99661.81
2018-09-01T01:13:55.680Z,99658.43
2018-09-01T01:16:24.569Z,99666.64
2018-09-01T01:18:53.491Z,99665.10
2018-09-01T01:21:22.716Z,99665.60
2018-09-01T01:23:51.813Z,99666.65
2018-09-01T01:26:20.862Z,99671.96
2018-09-01T01:28:49.811Z,99670.12
2018-09-01T01:31:19.125Z,99669.27
2018-09-01T01:33:48.085Z,99675.20
2018-09-01T01:36:17.122Z,99680.97
2018-09-01T01:38:45.949Z,99677.52
2018-09-01T01:41:14.920Z,99682.41
2018-09-01T01:43:44.017Z,99675.28
2018-09-01T01:46:13.145Z,99677.68
2018-09-01T01:48:42.195Z,99682.09
2018-09-01T01:51:11.266Z,99677.38
2018-09-01T01:53:40.152Z,99680.27
2018-09-01T01:56:08.964Z,99673.25
2018-09-01T01:58:37.958Z,99684.12
2018-09-01T02:01:07.404Z,99672.48
2018-09-01T02:03:36.412Z,99667.89
2018-09-01T02:06:05.442Z,99666.20
2018-09-01T02:08:34.954Z,99680.38
2018-09-01T02:11:03.972Z,99670.86
2018-09-01T02:13:32.899Z,99675.66
2018-09-01T02:16:02.132Z,99677.98
2018-09-01T02:18:31.155Z,99669.09
2018-09-01T02:21:00.142Z,99663.17
2018-09-01T02:23:29.440Z,99667.52
2018-09-01T02:25:58.315Z,99661.59
2018-09-01T02:28:27.379Z,99677.20
2018-09-01T02:30:56.730Z,99674.10
2018-09-01T02:33:25.652Z,99677.42
2018-09-01T02:35:54.496Z,99673.58
2018-09-01T02:38:24.006Z,99676.96
2018-09-01T02:40:52.873Z,99680.06
2018-09-01T02:43:21.863Z,99678.55
2018-09-01T02:45:51.131Z,99666.17
2018-09-01T02:48:20.038Z,99678.83
2018-09-01T02:50:49.125Z,99669.20
2018-09-01T02:53:19.394Z,99678.02
2018-09-01T02:55:48.391Z,99683.91
2018-09-01T02:58:17.383Z,99683.38
2018-09-01T03:00:46.413Z,99683.06
2018-09-01T03:03:15.354Z,99688.53
2018-09-01T03:05:44.198Z,99684.16
2018-09-01T03:08:13.786Z,99686.65
2018-09-01T03:10:43.211Z,99688.65
2018-09-01T03:13:12.112Z,99689.25
2018-09-01T03:15:41.093Z,99687.70
2018-09-01T03:18:10.256Z,99692.38
2018-09-01T03:20:39.250Z,99699.56
2018-09-01T03:23:08.911Z,99699.07
2018-09-01T03:25:38.072Z,99695.53
2018-09-01T03:28:07.140Z,99699.69
2018-09-01T03:30:36.078Z,99700.34
2018-09-01T03:33:05.300Z,99694.91
2018-09-01T03:35:34.264Z,99687.66
2018-09-01T03:38:03.677Z,99698.72
2018-09-01T03:40:32.624Z,99705.27
2018-09-01T03:43:01.744Z,99715.33
2018-09-01T03:45:31.742Z,99711.52
2018-09-01T03:48:00.708Z,99707.73
2018-09-01T03:50:29.737Z,99719.73
2018-09-01T03:52:59.042Z,99715.28
2018-09-01T03:55:27.925Z,99720.44
2018-09-01T03:57:56.932Z,99723.45
2018-09-01T04:00:27.734Z,99723.33
2018-09-01T04:02:57.811Z,99728.63
2018-09-01T04:06:29.823Z,99723.37
2018-09-01T04:08:58.704Z,99737.83
2018-09-01T04:11:27.644Z,99737.73
2018-09-01T04:13:56.584Z,99737.21
2018-09-01T04:16:25.693Z,99737.21
2018-09-01T04:18:54.825Z,99740.60
2018-09-01T04:21:24.124Z,99741.09
2018-09-01T04:23:53.145Z,99740.95
2018-09-01T04:26:22.168Z,99736.30
2018-09-01T04:28:51.215Z,99736.58
2018-09-01T04:31:20.221Z,99739.83
2018-09-01T04:33:49.199Z,99742.89
2018-09-01T04:36:18.105Z,99738.16
2018-09-01T04:38:46.953Z,99732.41
2018-09-01T04:41:16.051Z,99732.34
2018-09-01T04:43:45.532Z,99725.45
2018-09-01T04:46:14.541Z,99731.44
2018-09-01T04:48:43.353Z,99732.72
2018-09-01T04:51:12.676Z,99728.36
2018-09-01T04:53:41.563Z,99723.89
2018-09-01T04:56:10.669Z,99728.91
2018-09-01T04:58:39.695Z,99723.87
2018-09-01T05:01:08.707Z,99726.27
2018-09-01T05:03:37.549Z,99719.88
2018-09-01T05:06:07.019Z,99713.16
2018-09-01T05:08:35.985Z,99708.20
2018-09-01T05:11:05.058Z,99711.28
2018-09-01T05:13:34.013Z,99714.09
2018-09-01T05:16:03.325Z,99711.78
2018-09-01T05:18:32.230Z,99712.30
2018-09-01T05:21:01.561Z,99720.52
2018-09-01T05:23:30.469Z,99717.70
2018-09-01T05:25:59.446Z,99715.36
2018-09-01T05:28:28.898Z,99710.38
2018-09-01T05:30:57.785Z,99712.23
2018-09-01T05:33:26.648Z,99711.61
2018-09-01T05:35:55.635Z,99717.77
2018-09-01T05:38:24.570Z,99714.73
2018-09-01T05:40:53.512Z,99712.32
2018-09-01T05:43:23.241Z,99712.54
2018-09-01T05:45:52.068Z,99710.59
2018-09-01T05:48:21.098Z,99709.00
2018-09-01T05:50:51.144Z,99708.00
2018-09-01T05:53:20.078Z,99708.84
2018-09-01T05:55:49.185Z,99709.57
2018-09-01T05:58:18.194Z,99708.16
2018-09-01T06:00:48.345Z,99713.95
2018-09-01T06:03:17.782Z,99711.70
2018-09-01T06:05:47.931Z,99717.95
2018-09-01T06:08:17.161Z,99717.11
2018-09-01T06:10:45.979Z,99718.45
2018-09-01T06:13:15.426Z,99720.64
2018-09-01T06:15:44.388Z,99716.08
2018-09-01T06:18:13.425Z,99721.46
2018-09-01T06:20:42.327Z,99714.60
2018-09-01T06:23:11.367Z,99720.63
2018-09-01T06:25:40.233Z,99722.75
2018-09-01T06:28:13.877Z,99720.29
2018-09-01T06:30:45.255Z,99719.15
2018-09-01T06:33:14.497Z,99723.45
2018-09-01T06:35:43.458Z,99720.91
2018-09-01T06:38:12.645Z,99725.62
2018-09-01T06:40:42.165Z,99724.59
2018-09-01T06:43:11.123Z,99723.66
2018-09-01T06:45:39.895Z,99723.04
2018-09-01T06:48:08.925Z,99717.37
2018-09-01T06:50:38.030Z,99724.84
2018-09-01T06:53:07.042Z,99722.70
2018-09-01T06:55:35.858Z,99721.59
2018-09-01T06:58:04.926Z,99717.45
2018-09-01T07:00:33.909Z,99713.92
2018-09-01T07:03:02.837Z,99719.52
2018-09-01T07:05:31.838Z,99719.20
2018-09-01T07:08:01.269Z,99719.39
2018-09-01T07:10:30.410Z,99711.95
2018-09-01T07:12:59.582Z,99715.03
2018-09-01T07:15:28.515Z,99707.79
2018-09-01T07:17:57.977Z,99711.16
2018-09-01T07:20:27.059Z,99706.23
2018-09-01T07:22:56.007Z,99707.22
2018-09-01T07:25:25.054Z,99703.34
2018-09-01T07:27:53.958Z,99700.11
2018-09-01T07:30:22.861Z,99705.82
2018-09-01T07:32:52.112Z,99711.87
2018-09-01T07:35:20.960Z,99707.43
2018-09-01T07:37:49.885Z,99705.39
2018-09-01T07:40:19.385Z,99708.06
2018-09-01T07:42:48.349Z,99703.31
2018-09-01T07:45:17.836Z,99702.25
2018-09-01T07:47:47.380Z,99700.20
2018-09-01T07:50:16.437Z,99704.55
2018-09-01T07:52:45.524Z,99697.33
2018-09-01T07:55:14.461Z,99698.59
2018-09-01T07:57:43.569Z,99699.71
2018-09-01T08:00:12.657Z,99700.92
2018-09-01T08:02:41.704Z,99699.88
2018-09-01T08:05:10.565Z,99694.21
2018-09-01T08:07:39.537Z,99696.58
2018-09-01T08:10:10.604Z,99693.08
2018-09-01T08:12:39.920Z,99692.24
2018-09-01T08:15:09.315Z,99698.14
2018-09-01T08:17:38.541Z,99696.34
2018-09-01T08:20:07.625Z,99693.87
2018-09-01T08:22:37.070Z,99693.03
2018-09-01T08:25:06.034Z,99694.72
2018-09-01T08:27:35.334Z,99691.59
2018-09-01T08:30:04.499Z,99682.00
2018-09-01T08:32:33.689Z,99677.77
2018-09-01T08:35:02.678Z,99680.09
2018-09-01T08:37:31.649Z,99676.77
2018-09-01T08:40:00.948Z,99682.91
2018-09-01T08:42:29.960Z,99670.94
2018-09-01T08:44:58.989Z,99670.57
2018-09-01T08:47:28.600Z,99662.44
2018-09-01T08:49:57.470Z,99660.24
2018-09-01T08:52:26.384Z,99663.48
2018-09-01T08:54:55.703Z,99660.57
2018-09-01T08:57:24.705Z,99656.94
2018-09-01T08:59:53.723Z,99654.30
2018-09-01T09:02:23.184Z,99648.77
2018-09-01T09:04:52.111Z,99645.56
2018-09-01T09:07:20.949Z,99645.55
2018-09-01T09:09:49.939Z,99647.16
2018-09-01T09:12:18.938Z,99645.66
2018-09-01T09:14:47.892Z,99646.09
2018-09-01T09:17:17.315Z,99643.02
2018-09-01T09:19:46.250Z,99640.56
2018-09-01T09:22:15.266Z,99637.27
2018-09-01T09:24:44.269Z,99635.55
2018-09-01T09:27:13.264Z,99634.97
2018-09-01T09:29:42.130Z,99638.78
2018-09-01T09:32:11.146Z,99630.84
2018-09-01T09:34:40.747Z,99633.30
2018-09-01T09:37:09.613Z,99627.39
2018-09-01T09:39:38.670Z,99625.10
2018-09-01T09:42:07.600Z,99628.22
2018-09-01T09:44:36.567Z,99627.64
2018-09-01T09:47:06.000Z,99623.45
2018-09-01T09:49:35.329Z,99620.86
2018-09-01T09:52:04.310Z,99616.80
2018-09-01T09:54:33.637Z,99619.52
2018-09-01T09:57:03.218Z,99618.19
2018-09-01T09:59:32.206Z,99613.63
2018-09-01T10:02:03.459Z,99605.02
2018-09-01T10:04:32.594Z,99606.73
2018-09-01T10:07:01.431Z,99605.55
2018-09-01T10:09:30.417Z,99610.07
2018-09-01T10:11:59.486Z,99604.73
2018-09-01T10:14:28.537Z,99613.83
2018-09-01T10:16:57.797Z,99613.01
2018-09-01T10:19:26.695Z,99611.55
2018-09-01T10:21:55.709Z,99605.88
2018-09-01T10:24:24.772Z,99603.54
2018-09-01T10:26:53.747Z,99606.28
2018-09-01T10:29:22.755Z,99600.48
2018-09-01T10:31:52.026Z,99605.09
2018-09-01T10:34:21.054Z,99602.30
2018-09-01T10:36:50.108Z,99603.52
2018-09-01T10:39:19.420Z,99596.61
2018-09-01T10:41:48.517Z,99595.23
2018-09-01T10:44:17.565Z,99597.41
2018-09-01T10:46:46.735Z,99593.27
2018-09-01T10:49:15.721Z,99592.14
2018-09-01T10:51:44.693Z,99589.14
2018-09-01T10:54:13.830Z,99588.90
2018-09-01T10:56:42.639Z,99584.16
2018-09-01T10:59:11.830Z,99581.73
2018-09-01T11:01:40.805Z,99582.53
2018-09-01T11:04:09.779Z,99584.05
2018-09-01T11:06:38.759Z,99586.66
2018-09-01T11:09:10.361Z,99579.64
2018-09-01T11:11:41.744Z,99581.73
2018-09-01T11:14:11.063Z,99576.15
2018-09-01T11:16:40.076Z,99571.94
2018-09-01T11:19:09.191Z,99565.41
2018-09-01T11:21:39.582Z,99568.79
2018-09-01T11:24:08.407Z,99569.75
2018-09-01T11:26:37.535Z,99564.37
2018-09-01T11:29:07.417Z,99570.75
2018-09-01T11:31:38.970Z,99569.43
2018-09-01T11:34:12.163Z,99566.61
2018-09-01T11:36:45.312Z,99569.58
2018-09-01T11:39:17.223Z,99565.48
2018-09-01T11:41:46.531Z,99569.72
2018-09-01T11:44:15.856Z,99560.25
2018-09-01T11:46:46.026Z,99564.60
2018-09-01T11:49:30.759Z,99549.56
2018-09-01T11:52:00.893Z,99549.94
2018-09-01T11:54:32.618Z,99553.22
2018-09-01T11:57:03.299Z,99551.02
2018-09-01T11:59:39.513Z,99535.30
2018-09-01T12:02:12.193Z,99535.23
2018-09-01T12:04:41.390Z,99531.79
2018-09-01T12:07:15.999Z,99530.13
2018-09-01T12:09:45.174Z,99527.78
2018-09-01T12:12:14.155Z,99520.47
2018-09-01T12:14:44.568Z,99521.37
2018-09-01T12:17:13.596Z,99521.60
2018-09-01T12:19:42.699Z,99521.54
2018-09-01T12:22:12.861Z,99520.63
2018-09-01T12:24:41.825Z,99515.04
2018-09-01T12:27:10.872Z,99519.20
2018-09-01T12:29:40.344Z,99520.11
2018-09-01T12:32:09.208Z,99520.41
2018-09-01T12:34:38.134Z,99515.41
2018-09-01T12:37:07.164Z,99519.55
2018-09-01T12:39:36.172Z,99520.38
2018-09-01T12:42:05.784Z,99519.59
2018-09-01T12:44:36.131Z,99524.03
2018-09-01T12:47:15.185Z,99514.77
2018-09-01T12:49:44.227Z,99519.13
2018-09-01T12:52:19.553Z,99517.78
2018-09-01T12:54:49.122Z,99521.94
2018-09-01T12:57:23.816Z,99515.31
2018-09-01T12:59:53.200Z,99515.55
2018-09-01T13:02:25.231Z,99510.22
2018-09-01T13:04:54.422Z,99515.98
2018-09-01T13:07:24.426Z,99504.98
2018-09-01T13:09:57.398Z,99500.05
2018-09-01T13:12:26.566Z,99504.52
2018-09-01T13:14:55.611Z,99496.31
2018-09-01T13:17:25.546Z,99496.38
2018-09-01T13:19:54.560Z,99493.31
2018-09-01T13:22:23.466Z,99495.35
2018-09-01T13:24:52.477Z,99488.80
2018-09-01T13:27:21.362Z,99493.44
2018-09-01T13:29:50.481Z,99484.77
2018-09-01T13:32:19.492Z,99490.22
2018-09-01T13:34:48.560Z,99486.95
2018-09-01T13:37:17.354Z,99479.50
2018-09-01T13:39:46.911Z,99481.72
2018-09-01T13:42:15.801Z,99480.73
2018-09-01T13:44:44.829Z,99471.91
2018-09-01T13:47:13.827Z,99468.20
2018-09-01T13:49:42.839Z,99471.84
2018-09-01T13:52:15.879Z,99470.86
2018-09-01T13:54:44.728Z,99467.23
2018-09-01T13:57:13.778Z,99460.45
2018-09-01T13:59:43.129Z,99462.29
2018-09-01T14:02:12.083Z,99463.62
2018-09-01T14:04:41.199Z,99468.42
2018-09-01T14:07:10.297Z,99465.75
2018-09-01T14:09:39.276Z,99464.91
2018-09-01T14:12:08.209Z,99470.94
2018-09-01T14:14:37.716Z,99460.42
2018-09-01T14:17:06.918Z,99464.44
2018-09-01T14:19:35.844Z,99461.10
2018-09-01T14:22:04.814Z,99469.63
2018-09-01T14:24:33.963Z,99460.81
2018-09-01T14:27:02.961Z,99460.59
2018-09-01T14:29:32.855Z,99458.15
2018-09-01T14:32:01.729Z,99463.70
2018-09-01T14:34:30.674Z,99464.89
2018-09-01T14:36:59.535Z,99457.81
2018-09-01T14:39:28.560Z,99458.06
2018-09-01T14:41:57.566Z,99457.61
2018-09-01T14:44:26.676Z,99461.72
2018-09-01T14:48:25.103Z,99458.84
2018-09-01T14:50:54.674Z,99462.95
2018-09-01T14:53:23.725Z,99461.25
2018-09-01T14:55:52.840Z,99466.89
2018-09-01T14:58:22.380Z,99462.19
2018-09-01T15:00:51.272Z,99461.89
2018-09-01T15:03:20.175Z,99460.81
2018-09-01T15:12:34.584Z,99463.77
2018-09-01T15:15:03.685Z,99463.82
2018-09-01T15:17:32.680Z,99456.45
2018-09-01T15:20:02.302Z,99458.70
2018-09-01T15:22:31.489Z,99469.70
2018-09-01T15:25:00.608Z,99460.28
2018-09-01T15:27:29.668Z,99465.20
2018-09-01T15:29:58.594Z,99460.56
2018-09-01T15:32:27.613Z,99465.73
2018-09-01T15:34:56.686Z,99461.67
2018-09-01T15:37:25.677Z,99454.27
2018-09-01T15:39:54.646Z,99452.00
2018-09-01T15:42:23.662Z,99452.22
2018-09-01T15:44:52.638Z,99450.30
2018-09-01T15:47:21.440Z,99446.53
2018-09-01T15:49:50.362Z,99445.28
2018-09-01T15:52:19.141Z,99451.66
2018-09-01T15:54:48.043Z,99447.29
2018-09-01T15:57:17.406Z,99451.00
2018-09-01T15:59:46.267Z,99443.91
2018-09-01T16:02:15.161Z,99450.91
2018-09-01T16:04:45.158Z,99448.73
2018-09-01T16:07:14.158Z,99446.74
2018-09-01T16:09:43.085Z,99446.89
2018-09-01T16:12:13.366Z,99445.05
2018-09-01T16:14:42.340Z,99447.80
2018-09-01T16:17:11.449Z,99448.26
2018-09-01T16:19:40.501Z,99452.28
2018-09-01T16:22:09.383Z,99453.58
2018-09-01T16:24:38.633Z,99448.22
2018-09-01T16:27:08.747Z,99451.09
2018-09-01T16:29:37.736Z,99446.20
2018-09-01T16:32:07.175Z,99452.19
2018-09-01T16:34:36.411Z,99454.51
2018-09-01T16:37:05.549Z,99454.11
2018-09-01T16:39:34.661Z,99460.69
2018-09-01T16:42:03.587Z,99455.56
2018-09-01T16:44:32.654Z,99459.45
2018-09-01T16:47:01.753Z,99462.80
2018-09-01T16:49:30.982Z,99458.59
2018-09-01T16:51:59.994Z,99458.86
2018-09-01T16:55:32.038Z,99460.09
2018-09-01T16:58:01.061Z,99465.17
2018-09-01T17:00:30.105Z,99463.36
2018-09-01T17:02:59.335Z,99462.59
2018-09-01T17:05:28.173Z,99462.94
2018-09-01T17:07:57.227Z,99461.84
2018-09-01T17:10:26.441Z,99458.55
2018-09-01T17:12:55.230Z,99465.72
2018-09-01T17:15:24.338Z,99467.64
2018-09-01T17:17:53.281Z,99463.71
2018-09-01T17:21:24.926Z,99470.83
2018-09-01T17:23:54.521Z,99466.47
2018-09-01T17:26:23.603Z,99468.37
2018-09-01T17:28:52.546Z,99473.83
2018-09-01T17:31:21.386Z,99474.31
2018-09-01T17:33:50.335Z,99481.34
2018-09-01T17:36:19.205Z,99488.58
2018-09-01T17:38:48.366Z,99487.23
2018-09-01T17:41:17.332Z,99485.68
2018-09-01T17:43:46.285Z,99481.66
2018-09-01T17:46:15.973Z,99490.13
2018-09-01T17:48:44.812Z,99495.42
2018-09-01T17:51:13.821Z,99497.42
2018-09-01T17:53:43.244Z,99494.14
2018-09-01T17:56:12.158Z,99507.63
2018-09-01T17:58:41.304Z,99515.84
2018-09-01T18:01:10.478Z,99509.92
2018-09-01T18:03:39.448Z,99520.59
2018-09-01T18:06:08.343Z,99522.44
2018-09-01T18:08:37.794Z,99521.55
2018-09-01T18:11:06.882Z,99534.34
2018-09-01T18:13:35.820Z,99532.23
2018-09-01T18:16:05.282Z,99545.88
2018-09-01T18:18:34.131Z,99541.69
2018-09-01T18:21:03.081Z,99537.22
2018-09-01T18:23:32.106Z,99543.34
2018-09-01T18:26:01.053Z,99546.77
2018-09-01T18:28:30.141Z,99544.49
2018-09-01T18:30:59.419Z,99547.73
2018-09-01T18:33:28.405Z,99542.55
2018-09-01T18:35:57.848Z,99544.95
2018-09-01T18:38:27.100Z,99547.85
2018-09-01T18:40:56.066Z,99554.86
2018-09-01T18:43:25.233Z,99547.96
2018-09-01T18:46:57.468Z,99544.36
2018-09-01T18:49:26.435Z,99552.25
2018-09-01T18:51:55.353Z,99549.46
2018-09-01T18:54:25.368Z,99546.22
2018-09-01T18:56:54.190Z,99549.63
2018-09-01T18:59:23.269Z,99555.41
2018-09-01T19:01:52.387Z,99555.12
2018-09-01T19:04:21.381Z,99554.30
2018-09-01T19:06:50.403Z,99553.67
2018-09-01T19:09:19.347Z,99556.42
2018-09-01T19:11:48.184Z,99560.02
2018-09-01T19:14:17.153Z,99552.92
2018-09-01T19:16:46.025Z,99553.31
2018-09-01T19:19:14.949Z,99556.72
2018-09-01T19:21:43.984Z,99559.64
2018-09-01T19:24:13.229Z,99558.10
2018-09-01T19:26:42.056Z,99557.11
2018-09-01T19:29:11.099Z,99562.55
2018-09-01T19:31:40.313Z,99561.70
2018-09-01T19:34:09.340Z,99563.77
2018-09-01T19:36:38.404Z,99558.87
2018-09-01T19:39:10.161Z,99562.59
2018-09-01T19:41:39.253Z,99558.86
2018-09-01T19:44:08.264Z,99564.45
2018-09-01T19:46:37.545Z,99563.64
2018-09-01T19:49:06.472Z,99563.48
2018-09-01T19:51:35.362Z,99572.10
2018-09-01T19:54:04.260Z,99565.84
2018-09-01T19:56:33.229Z,99569.41
2018-09-01T19:59:02.215Z,99570.29
2018-09-01T20:01:31.486Z,99575.88
2018-09-01T20:04:00.388Z,99577.55
2018-09-01T20:06:29.299Z,99574.83
2018-09-01T20:08:58.537Z,99580.23
2018-09-01T20:11:27.463Z,99577.22
2018-09-01T20:13:56.432Z,99579.23
2018-09-01T20:16:25.831Z,99577.20
2018-09-01T20:18:54.682Z,99577.20
2018-09-01T20:21:23.637Z,99583.61
2018-09-01T20:23:52.601Z,99590.21
2018-09-01T20:26:21.476Z,99592.56
2018-09-01T20:28:50.552Z,99590.53
2018-09-01T20:31:19.735Z,99594.58
2018-09-01T20:33:48.808Z,99596.27
2018-09-01T20:36:20.832Z,99593.75
2018-09-01T20:38:49.768Z,99592.07
2018-09-01T20:41:18.793Z,99590.38
2018-09-01T20:43:47.838Z,99591.72
2018-09-01T20:46:16.856Z,99592.23
2018-09-01T20:48:45.960Z,99595.42
2018-09-01T20:51:15.593Z,99596.45
2018-09-01T20:53:44.387Z,99596.78
2018-09-01T20:56:13.359Z,99591.89
2018-09-01T20:58:43.077Z,99592.38
2018-09-01T21:01:12.022Z,99597.77
2018-09-01T21:03:41.060Z,99598.27
2018-09-01T21:06:10.367Z,99598.59
2018-09-01T21:08:39.240Z,99601.42
2018-09-01T21:11:08.222Z,99600.75
2018-09-01T21:13:37.667Z,99600.05
2018-09-01T21:16:06.512Z,99603.42
2018-09-01T21:18:35.325Z,99595.66
2018-09-01T21:21:04.711Z,99589.93
2018-09-01T21:23:33.692Z,99594.31
2018-09-01T21:26:02.754Z,99597.02
2018-09-01T21:28:32.206Z,99594.96
2018-09-01T21:31:01.054Z,99598.70
2018-09-01T21:33:31.020Z,99597.36
2018-09-01T21:36:00.294Z,99595.97
2018-09-01T21:38:29.259Z,99591.76
2018-09-01T21:40:58.307Z,99590.41
2018-09-01T21:43:27.744Z,99593.61
2018-09-01T21:45:56.715Z,99590.37
2018-09-01T21:48:25.515Z,99594.59
2018-09-01T21:50:54.834Z,99600.95
2018-09-01T21:53:23.700Z,99596.91
2018-09-01T21:55:52.751Z,99600.41
2018-09-01T21:58:22.120Z,99593.49
2018-09-01T22:00:51.689Z,99594.59
2018-09-01T22:03:22.082Z,99587.85
2018-09-01T22:05:51.052Z,99597.28
2018-09-01T22:08:19.917Z,99597.25
2018-09-01T22:10:48.819Z,99601.78
2018-09-01T22:13:17.724Z,99603.13
2018-09-01T22:15:46.653Z,99608.52
2018-09-01T22:18:16.080Z,99595.34
2018-09-01T22:20:45.035Z,99602.12
2018-09-01T22:23:13.810Z,99596.84
2018-09-01T22:25:43.185Z,99599.15
2018-09-01T22:28:12.124Z,99593.62
2018-09-01T22:30:42.092Z,99592.58
2018-09-01T22:33:11.116Z,99594.25
2018-09-01T22:35:40.210Z,99593.24
2018-09-01T22:38:09.234Z,99589.47
2018-09-01T22:40:38.738Z,99602.26
2018-09-01T22:43:07.555Z,99592.84
2018-09-01T22:45:36.576Z,99595.52
2018-09-01T22:48:05.670Z,99601.70
2018-09-01T22:50:34.642Z,99605.06
2018-09-01T22:53:03.576Z,99604.55
2018-09-01T22:55:32.896Z,99607.75
2018-09-01T22:58:01.805Z,99612.23
2018-09-01T23:00:30.698Z,99614.59
2018-09-01T23:02:59.692Z,99611.20
2018-09-01T23:05:28.687Z,99616.02
2018-09-01T23:07:57.680Z,99618.22
2018-09-01T23:10:26.849Z,99618.94
2018-09-01T23:12:55.783Z,99612.98
2018-09-01T23:15:24.932Z,99617.14
2018-09-01T23:17:54.013Z,99612.36
2018-09-01T23:20:23.095Z,99620.91
2018-09-01T23:22:52.122Z,99617.55
2018-09-01T23:25:21.246Z,99616.61
2018-09-01T23:27:50.313Z,99616.22
2018-09-01T23:30:19.335Z,99609.70
2018-09-01T23:32:48.212Z,99618.53
2018-09-01T23:35:17.137Z,99615.66
2018-09-01T23:37:46.098Z,99622.83
2018-09-01T23:40:15.950Z,99617.11
2018-09-01T23:42:44.807Z,99629.21
2018-09-01T23:45:13.804Z,99621.45
2018-09-01T23:47:43.252Z,99623.40
2018-09-01T23:50:12.229Z,99630.94
2018-09-01T23:52:41.232Z,99622.68
2018-09-01T23:55:10.453Z,99628.31
2018-09-01T23:57:39.556Z,99631.59
